Station: Hindmarsh Island  

  Atmospheric Gas Attenuation - ITU Rec 676-11   ----------------- dB/100km -----------------
Date Time Temp RH % AH g/m3 Dew Point Wind Direction Speed kph Gust kph Barometer mB Rainfall Since 9am 24GHz 47GHz 76GHz 122GHz 134GHz 241GHz
10/05 10:00 15.1 85 10.97 12.6 9 11 1030.9 0 24.6 30.2 49.8 130.9 130.6 451.2
10/05 09:50 15.1 87 11.22 13 7 7 1030.9 0 25.1 30.6 50.9 133.8 134.2 463.7
10/05 09:40 14.7 87 10.95 12.6 4 6 1030.9 0 24.5 30.3 50.0 131.4 131.0 452.6
10/05 09:30 14.6 88 11.01 12.6 7 9 1030.9 0 24.7 30.4 50.3 132.2 132.1 456.2
10/05 09:20 14.3 88 10.81 12.3 9 9 1030.9 0 24.3 30.2 49.6 130.4 129.7 447.9
10/05 09:10 14.3 89 10.93 12.5 11 11 1031 0 24.5 30.4 50.1 131.8 131.5 453.9
10/05 09:00 14.1 90 10.92 12.5 9 11 1031 0 24.5 30.4 50.2 132.0 131.7 454.6
10/05 08:50 14.1 90 10.92 12.5 6 7 1031 0.4 24.5 30.4 50.2 132.0 131.7 454.6
10/05 08:40 13.8 90 10.72 12.2 9 11 1030.9 0.4 24.1 30.2 49.5 130.2 129.3 446.3
10/05 08:30 13.7 91 10.78 12.3 9 11 1030.8 0.4 24.2 30.3 49.9 131.0 130.3 449.8
10/05 08:20 13.6 91 10.71 12.2 9 11 1030.8 0.4 24.1 30.2 49.6 130.4 129.5 446.9
10/05 08:10 13.5 91 10.64 12.1 9 9 1030.7 0.4 23.9 30.1 49.4 129.7 128.6 443.9
10/05 08:00 13.4 91 10.58 12 7 11 1030.6 0.4 23.8 30.0 49.2 129.2 127.9 441.4
10/05 07:50 13.3 91 10.51 11.9 7 9 1030.5 0.4 23.7 30.0 48.9 128.5 127.1 438.4
10/05 07:40 13.1 91 10.38 11.7 9 9 1030.3 0.4 23.4 29.8 48.5 127.3 125.5 433.0
10/05 07:30 13 91 10.32 11.6 9 11 1030.2 0.4 23.3 29.7 48.3 126.8 124.8 430.5
10/05 07:20 12.9 91 10.26 11.5 9 11 1030.1 0.4 23.2 29.6 48.1 126.2 124.1 428.0
10/05 07:10 12.8 91 10.19 11.4 7 9 1029.9 0.4 23.0 29.5 47.8 125.5 123.2 425.0
10/05 07:00 12.8 91 10.19 11.4 9 13 1029.8 0.4 23.0 29.5 47.8 125.5 123.2 424.9
10/05 06:50 12.7 92 10.24 11.4 7 9 1029.8 0.4 23.1 29.7 48.1 126.3 124.1 428.0
10/05 06:40 12.6 92 10.18 11.3 7 9 1029.7 0.4 23.0 29.6 47.9 125.7 123.4 425.5
10/05 06:30 12.6 92 10.18 11.3 13 17 1029.5 0.4 23.0 29.6 47.9 125.7 123.4 425.4
10/05 06:20 12.6 92 10.18 11.3 11 13 1029.4 0.4 23.0 29.6 47.9 125.7 123.4 425.4
10/05 06:10 12.6 92 10.18 11.3 13 15 1029.4 0.4 23.0 29.6 47.9 125.7 123.4 425.4
10/05 06:00 12.7 92 10.24 11.4 11 17 1029.4 0.4 23.1 29.6 48.1 126.2 124.1 427.9
10/05 05:50 12.7 92 10.24 11.4 13 15 1029.3 0.4 23.1 29.6 48.0 126.2 124.0 427.8
10/05 05:40 12.6 92 10.18 11.3 13 13 1029.3 0.4 23.0 29.6 47.8 125.7 123.3 425.4
10/05 05:30 12.6 92 10.18 11.3 13 17 1029.3 0.4 23.0 29.6 47.8 125.7 123.3 425.4
10/05 05:20 12.6 92 10.18 11.3 11 15 1029.2 0.4 23.0 29.6 47.8 125.7 123.3 425.3
10/05 05:10 12.6 92 10.18 11.3 11 11 1029.1 0.4 23.0 29.6 47.8 125.7 123.3 425.3
10/05 05:00 12.6 91 10.07 11.2 9 11 1029 0.4 22.8 29.4 47.4 124.4 121.7 419.8
10/05 04:50 12.7 91 10.13 11.3 7 9 1029 0.4 22.9 29.4 47.6 124.9 122.4 422.2
10/05 04:40 12.8 91 10.19 11.4 6 6 1028.9 0.4 23.0 29.5 47.7 125.4 123.1 424.6
10/05 04:30 12.8 91 10.19 11.4 9 13 1028.8 0.4 23.0 29.5 47.7 125.4 123.1 424.6
10/05 04:20 12.8 91 10.19 11.4 9 11 1028.7 0.4 23.0 29.5 47.7 125.4 123.1 424.6
10/05 04:10 12.9 91 10.26 11.5 13 15 1028.6 0.4 23.2 29.6 48.0 126.0 123.9 427.5
10/05 04:00 13 91 10.32 11.6 13 17 1028.6 0.4 23.3 29.6 48.2 126.6 124.6 429.9
10/05 03:50 13 90 10.21 11.4 11 13 1028.6 0.4 23.1 29.5 47.7 125.3 123.1 424.4
10/05 03:40 13 90 10.21 11.4 11 13 1028.5 0.4 23.1 29.4 47.7 125.3 123.0 424.4
10/05 03:30 13.2 90 10.33 11.6 11 17 1028.5 0.4 23.3 29.6 48.1 126.4 124.4 429.3
10/05 03:20 13.3 90 10.4 11.7 15 17 1028.5 0.4 23.4 29.7 48.3 127.0 125.3 432.2
10/05 03:10 13.3 91 10.51 11.9 19 20 1028.5 0.4 23.7 29.9 48.8 128.3 126.9 437.8
10/05 03:00 13.3 91 10.51 11.9 17 20 1028.6 0.4 23.7 29.9 48.8 128.3 126.9 437.8
10/05 02:50 13.5 92 10.76 12.2 13 15 1028.6 0.4 24.2 30.2 49.8 130.9 130.1 449.2
10/05 02:40 13.5 92 10.76 12.2 15 17 1028.7 0.4 24.2 30.3 49.8 130.9 130.1 449.3
10/05 02:30 13.4 92 10.7 12.1 15 19 1028.7 0.4 24.1 30.2 49.6 130.4 129.4 446.8
10/05 02:20 13.5 92 10.76 12.2 15 17 1028.7 0.4 24.2 30.3 49.8 130.9 130.1 449.3
10/05 02:10 13.7 92 10.89 12.4 15 17 1028.8 0.4 24.5 30.4 50.2 132.1 131.7 454.7
10/05 02:00 13.8 91 10.84 12.4 11 17 1028.9 0.4 24.4 30.3 50.0 131.4 130.8 451.6
10/05 01:50 13.9 91 10.91 12.5 13 15 1028.9 0.4 24.5 30.4 50.2 132.0 131.6 454.6
10/05 01:40 13.9 91 10.91 12.5 9 9 1029 0.4 24.5 30.4 50.2 132.0 131.7 454.6
10/05 01:30 13.9 91 10.91 12.5 9 9 1029 0.4 24.5 30.4 50.2 132.0 131.7 454.6
10/05 01:20 13.9 90 10.79 12.3 7 9 1029 0.4 24.2 30.2 49.7 130.6 129.9 448.6
10/05 01:10 13.9 90 10.79 12.3 7 9 1029 0.4 24.2 30.2 49.7 130.6 129.9 448.6
10/05 01:00 13.9 90 10.79 12.3 7 9 1029 0.4 24.2 30.2 49.7 130.6 129.9 448.6
10/05 00:50 13.9 90 10.79 12.3 7 7 1029 0.4 24.2 30.2 49.7 130.6 129.9 448.6
10/05 00:40 13.9 89 10.67 12.1 9 9 1029 0.4 24.0 30.0 49.2 129.2 128.2 442.5
10/05 00:30 14.1 89 10.8 12.3 9 11 1029 0.4 24.3 30.1 49.6 130.4 129.7 447.9
10/05 00:20 14.2 89 10.87 12.4 11 13 1029 0.4 24.4 30.2 49.8 131.0 130.6 450.8
10/05 00:10 14.3 89 10.93 12.5 15 15 1028.9 0.4 24.5 30.3 50.0 131.6 131.2 453.2
10/05 00:00 13.9 89 10.67 12.1 9 11 1029 0.4 24.0 30.0 49.2 129.2 128.2 442.5
09/05 23:50 13.5 89 10.41 11.7 9 11 1029 0.4 23.5 29.6 48.3 126.8 125.1 431.8
09/05 23:40 13.7 88 10.42 11.7 13 13 1029.1 0.4 23.5 29.6 48.2 126.7 125.0 431.2
09/05 23:30 13.8 88 10.49 11.8 15 20 1029.1 0.4 23.6 29.7 48.4 127.3 125.8 434.1
09/05 23:20 14.1 88 10.68 12.1 17 19 1029.1 0.4 24.0 29.9 49.1 129.0 128.0 441.9
09/05 23:10 14.8 87 11.02 12.7 20 22 1029.1 0.4 24.7 30.3 50.1 131.8 131.7 454.9
09/05 23:00 14.4 86 10.63 12.1 15 17 1029.1 0.4 23.9 29.7 48.7 127.9 126.8 437.7
09/05 22:50 14.4 87 10.75 12.3 13 15 1029.1 0.4 24.1 29.9 49.2 129.3 128.5 443.7
09/05 22:40 14.6 87 10.89 12.5 17 19 1029.1 0.4 24.4 30.1 49.7 130.6 130.2 449.5
09/05 22:30 14.3 88 10.81 12.3 17 22 1029.2 0.4 24.3 30.1 49.5 130.2 129.5 447.3
09/05 22:20 14.4 91 11.25 13 19 20 1029.2 0.4 25.2 30.8 51.4 135.2 135.7 468.9
09/05 22:10 14.1 92 11.17 12.8 17 19 1029.3 0.4 25.0 30.8 51.3 134.8 135.1 466.7
09/05 22:00 14.3 92 11.3 13 15 26 1029.2 0.4 25.3 30.9 51.7 135.9 136.6 472.0
09/05 21:50 14.2 93 11.36 13.1 13 13 1029.3 0.2 25.5 31.1 52.0 136.8 137.7 475.7
09/05 21:40 14.1 93 11.29 13 15 17 1029.3 0.2 25.3 31.0 51.8 136.2 136.8 472.8
09/05 21:30 14.4 93 11.5 13.3 15 20 1029.3 0.2 25.7 31.3 52.5 138.1 139.4 481.6
09/05 21:20 14.2 93 11.36 13.1 13 13 1029.3 0.2 25.5 31.1 52.0 136.8 137.7 475.7
09/05 21:10 14 93 11.22 12.9 11 11 1029.3 0.2 25.2 30.9 51.5 135.5 136.0 469.8
09/05 21:00 14 93 11.22 12.9 19 26 1029.3 0.2 25.2 30.9 51.5 135.5 136.0 469.8
09/05 20:50 14.3 93 11.43 13.2 22 24 1029.3 0.2 25.6 31.2 52.3 137.5 138.5 478.7
09/05 20:40 14.3 93 11.43 13.2 17 19 1029.3 0.2 25.6 31.2 52.3 137.5 138.5 478.7
09/05 20:30 14.4 92 11.37 13.1 13 17 1029.3 0.2 25.5 31.0 51.9 136.6 137.5 475.0
09/05 20:20 14.3 91 11.18 12.9 15 15 1029.3 0.2 25.1 30.7 51.2 134.5 134.9 466.0
09/05 20:10 14.6 91 11.39 13.1 20 22 1029.3 0.2 25.5 31.0 51.9 136.5 137.4 474.8
09/05 20:00 14.3 90 11.06 12.7 17 20 1029.4 0.2 24.8 30.5 50.6 133.1 133.2 459.9
09/05 19:50 14.5 90 11.19 12.9 19 19 1029.4 0.2 25.1 30.7 51.1 134.3 134.7 465.3
09/05 19:40 14.5 90 11.19 12.9 13 15 1029.4 0.2 25.1 30.7 51.1 134.3 134.7 465.3
09/05 19:30 14.6 89 11.14 12.8 13 19 1029.4 0.2 25.0 30.6 50.8 133.6 133.8 462.2
09/05 19:20 14.9 89 11.34 13.1 17 19 1029.4 0.2 25.4 30.8 51.5 135.4 136.1 470.4
09/05 19:10 14.7 88 11.08 12.7 15 17 1029.4 0.2 24.8 30.4 50.5 132.7 132.8 458.6
09/05 19:00 14.5 88 10.95 12.5 17 20 1029.3 0.2 24.6 30.3 50.0 131.5 131.2 453.2
09/05 18:50 14.7 89 11.21 12.9 15 17 1029.3 0.2 25.1 30.7 51.0 134.2 134.6 465.1
09/05 18:40 14.6 89 11.14 12.8 11 13 1029.2 0.2 25.0 30.6 50.8 133.5 133.8 462.1
09/05 18:30 15 88 11.28 13 15 19 1029.3 0.2 25.2 30.7 51.1 134.5 135.1 466.8
09/05 18:20 14.9 87 11.09 12.8 15 17 1029.2 0.2 24.8 30.4 50.4 132.4 132.5 457.8
09/05 18:10 14.9 87 11.09 12.8 15 19 1029.2 0.2 24.8 30.4 50.4 132.4 132.5 457.8
09/05 18:00 14.9 87 11.09 12.8 15 19 1029.1 0.2 24.8 30.4 50.4 132.4 132.5 457.8
09/05 17:50 15.2 86 11.16 12.9 17 20 1029 0.2 25.0 30.4 50.5 132.7 133.0 459.4
09/05 17:40 14.9 85 10.83 12.4 13 15 1028.9 0.2 24.3 29.9 49.2 129.4 128.8 444.7
09/05 17:30 15 85 10.9 12.5 15 17 1028.8 0.2 24.4 30.0 49.5 130.0 129.6 447.6

Last Refresh: 10-May-2026 10:01:08

Bureau of Meteorology